Time;durP1;ratioP1;P1;durP2;ratioP2;P2;SDS_P1;SDS_P2;PMS_P1;PMS_P2;Temp;Humidity;BMP_temperature;BMP_pressure;BME280_temperature;BME280_humidity;BME280_pressure;Samples;Min_cycle;Max_cycle;Signal;HPM_P1;HPM_P2
2021/10/10 00:01:25;;;;;;;2.75;1.20;;;;;;;10.75;100.00;97801.59;5023787;28;20060;-64
2021/10/10 00:03:52;;;;;;;1.83;1.30;;;;;;;10.67;100.00;97784.75;5024230;28;20060;-66
2021/10/10 00:06:19;;;;;;;1.38;1.08;;;;;;;10.91;100.00;97819.84;5023615;28;20053;-63
2021/10/10 00:08:45;;;;;;;2.10;1.30;;;;;;;10.60;100.00;97780.97;5022327;28;20057;-65
2021/10/10 00:11:12;;;;;;;2.28;1.63;;;;;;;10.93;100.00;97816.72;5022202;28;20060;-64
2021/10/10 00:13:39;;;;;;;1.52;1.42;;;;;;;10.92;100.00;97806.81;5024127;28;20056;-65
2021/10/10 00:16:05;;;;;;;1.48;1.35;;;;;;;10.57;100.00;97763.06;5023346;28;20446;-63
2021/10/10 00:18:32;;;;;;;3.15;1.90;;;;;;;11.06;100.00;97809.97;5023460;28;20054;-63
2021/10/10 00:20:59;;;;;;;3.10;1.63;;;;;;;11.05;100.00;97813.91;5022247;28;20049;-65
2021/10/10 00:23:26;;;;;;;2.47;1.70;;;;;;;11.04;100.00;97809.50;5022053;28;20057;-63
2021/10/10 00:25:52;;;;;;;1.98;1.50;;;;;;;10.57;100.00;97738.13;5023518;28;20057;-64
2021/10/10 00:28:19;;;;;;;1.95;1.30;;;;;;;10.92;100.00;97826.22;5023295;28;21221;-64
2021/10/10 00:30:46;;;;;;;1.67;1.27;;;;;;;10.64;100.00;97788.22;5021484;28;20467;-64
2021/10/10 00:33:12;;;;;;;1.20;1.13;;;;;;;10.46;100.00;97809.06;5023134;28;20412;-63
2021/10/10 00:35:39;;;;;;;5.10;1.25;;;;;;;10.16;100.00;97755.13;5023559;28;20080;-64
2021/10/10 00:38:06;;;;;;;2.95;1.33;;;;;;;9.77;100.00;97744.03;5022392;28;20058;-63
2021/10/10 00:40:33;;;;;;;2.28;1.55;;;;;;;9.82;100.00;97790.81;5023114;28;20132;-65
2021/10/10 00:42:59;;;;;;;3.50;1.50;;;;;;;9.83;100.00;97820.09;5023587;28;20061;-63
2021/10/10 00:45:27;;;;;;;1.60;1.50;;;;;;;10.01;100.00;97808.44;5022973;28;20439;-64
2021/10/10 00:47:54;;;;;;;1.60;1.50;;;;;;;10.21;100.00;97813.03;5026503;28;20589;-63
2021/10/10 00:50:20;;;;;;;7.57;3.95;;;;;;;10.15;100.00;97808.91;5025759;28;20064;-64
2021/10/10 00:52:49;;;;;;;9.10;3.40;;;;;;;9.62;100.00;97775.97;5028081;28;20053;-63
2021/10/10 00:55:20;;;;;;;3.50;2.13;;;;;;;9.95;100.00;97809.84;5027077;28;20512;-63
2021/10/10 00:57:50;;;;;;;4.70;2.55;;;;;;;10.12;100.00;97814.31;5027593;28;20061;-65
2021/10/10 01:00:18;;;;;;;21.40;7.70;;;;;;;9.75;100.00;97738.84;5027473;28;20058;-63
2021/10/10 01:02:44;;;;;;;7.20;3.70;;;;;;;9.73;100.00;97779.88;5027412;28;20057;-63
2021/10/10 01:05:13;;;;;;;12.65;4.63;;;;;;;9.64;100.00;97798.53;5027273;28;20049;-63
2021/10/10 01:07:40;;;;;;;9.70;3.95;;;;;;;9.21;100.00;97740.22;5027174;28;20567;-64
2021/10/10 01:10:08;;;;;;;15.43;5.88;;;;;;;9.66;100.00;97801.75;5027287;28;20520;-64
2021/10/10 01:12:35;;;;;;;9.68;4.00;;;;;;;9.62;100.00;97756.59;5027035;28;20059;-65
2021/10/10 01:15:02;;;;;;;3.15;2.00;;;;;;;10.09;100.00;97788.16;5025270;28;20045;-64
2021/10/10 01:17:29;;;;;;;3.80;2.13;;;;;;;10.21;100.00;97790.09;5025539;28;20050;-64
2021/10/10 01:19:57;;;;;;;4.13;2.42;;;;;;;10.38;100.00;97795.34;5026643;28;20042;-64
2021/10/10 01:22:24;;;;;;;2.75;2.00;;;;;;;10.40;100.00;97791.06;5026536;28;20050;-64
2021/10/10 01:24:50;;;;;;;2.78;1.95;;;;;;;10.37;100.00;97761.31;5026773;28;20056;-64
2021/10/10 01:27:17;;;;;;;3.30;2.30;;;;;;;10.55;100.00;97789.53;5026556;28;20587;-64
2021/10/10 01:29:44;;;;;;;5.65;3.03;;;;;;;10.65;100.00;97795.38;5026334;28;20057;-64
2021/10/10 01:32:10;;;;;;;5.13;2.90;;;;;;;10.51;100.00;97778.34;5026508;28;20929;-64
2021/10/10 01:34:37;;;;;;;3.45;2.53;;;;;;;10.76;100.00;97794.88;5026253;28;20061;-64
2021/10/10 01:37:04;;;;;;;3.47;2.55;;;;;;;10.72;100.00;97791.22;5026191;28;20057;-65
2021/10/10 01:39:31;;;;;;;11.15;6.35;;;;;;;10.81;100.00;97786.31;5026300;28;20057;-62
2021/10/10 01:41:57;;;;;;;10.07;4.13;;;;;;;10.85;100.00;97790.78;5026234;28;20076;-63
2021/10/10 01:44:24;;;;;;;5.10;3.85;;;;;;;10.85;100.00;97781.66;5026698;28;20081;-62
2021/10/10 01:46:50;;;;;;;3.45;2.60;;;;;;;10.83;100.00;97784.00;5026324;28;20052;-63
2021/10/10 01:49:17;;;;;;;3.88;2.60;;;;;;;10.89;100.00;97788.13;5024783;28;20460;-63
2021/10/10 01:51:44;;;;;;;2.80;2.20;;;;;;;10.90;100.00;97789.72;5026125;28;20146;-64
2021/10/10 01:54:10;;;;;;;5.60;2.90;;;;;;;10.91;100.00;97788.56;5026745;28;20063;-63
2021/10/10 01:56:37;;;;;;;3.88;2.67;;;;;;;10.91;100.00;97792.13;5024478;28;20057;-63
2021/10/10 01:59:04;;;;;;;5.75;3.22;;;;;;;10.86;100.00;97794.38;5026010;28;20056;-66
2021/10/10 02:01:31;;;;;;;3.67;3.05;;;;;;;10.84;100.00;97780.88;5026671;28;20049;-63
2021/10/10 02:03:58;;;;;;;4.80;3.00;;;;;;;10.91;100.00;97785.81;5024704;28;20094;-64
2021/10/10 02:06:25;;;;;;;5.25;2.75;;;;;;;10.88;100.00;97780.94;5026073;28;20050;-63
2021/10/10 02:08:52;;;;;;;3.85;2.95;;;;;;;10.97;100.00;97795.47;5026380;28;20060;-63
2021/10/10 02:11:19;;;;;;;5.25;3.10;;;;;;;10.89;100.00;97782.56;5026022;28;20057;-62
2021/10/10 02:13:45;;;;;;;4.65;2.75;;;;;;;10.86;100.00;97783.28;5025654;28;20176;-64
2021/10/10 02:16:12;;;;;;;3.63;2.95;;;;;;;10.98;100.00;97791.53;5025648;28;20082;-64
2021/10/10 02:18:39;;;;;;;4.15;3.10;;;;;;;10.47;100.00;97694.34;5022973;28;20123;-64
2021/10/10 02:21:05;;;;;;;3.95;2.53;;;;;;;11.07;100.00;97783.84;5025262;28;20057;-64
2021/10/10 02:23:32;;;;;;;4.00;2.30;;;;;;;8.23;100.00;97353.16;5025864;28;20059;-65
2021/10/10 02:25:59;;;;;;;4.85;2.50;;;;;;;10.88;100.00;97781.75;5024001;28;20527;-64
2021/10/10 02:28:26;;;;;;;5.78;3.17;;;;;;;10.87;100.00;97779.34;5024266;28;20071;-63
2021/10/10 02:30:52;;;;;;;2.88;2.30;;;;;;;10.92;100.00;97790.19;5025824;28;20053;-64
2021/10/10 02:33:19;;;;;;;12.48;4.65;;;;;;;10.91;100.00;97791.34;5025276;28;20054;-63
2021/10/10 02:35:46;;;;;;;14.52;5.97;;;;;;;10.90;100.00;97790.53;5025505;28;20072;-65
2021/10/10 02:38:13;;;;;;;8.93;4.45;;;;;;;10.84;100.00;97774.50;5025618;28;20057;-63
2021/10/10 02:40:39;;;;;;;6.03;3.53;;;;;;;11.02;100.00;97792.44;5024929;28;20056;-63
2021/10/10 02:43:06;;;;;;;4.20;3.28;;;;;;;10.56;100.00;97746.81;5024014;28;20511;-63
2021/10/10 02:45:34;;;;;;;5.90;4.10;;;;;;;10.93;100.00;97787.06;5024067;28;20120;-64
2021/10/10 02:48:01;;;;;;;13.73;8.55;;;;;;;10.56;100.00;97741.25;5025498;28;20057;-64
2021/10/10 02:50:27;;;;;;;6.63;3.65;;;;;;;10.66;100.00;97791.44;5024834;28;20057;-63
2021/10/10 02:52:55;;;;;;;3.28;2.60;;;;;;;10.89;100.00;97788.13;5023806;28;20049;-64
2021/10/10 02:55:22;;;;;;;5.63;2.55;;;;;;;10.39;100.00;97708.34;5024720;28;20135;-63
2021/10/10 02:57:49;;;;;;;5.70;2.25;;;;;;;10.67;100.00;97768.13;5023620;28;20053;-64
2021/10/10 03:00:16;;;;;;;2.45;2.10;;;;;;;10.83;100.00;97784.00;5024382;28;20444;-63
2021/10/10 03:02:43;;;;;;;3.38;3.08;;;;;;;10.83;100.00;97784.78;5025552;28;20453;-65
2021/10/10 03:05:10;;;;;;;2.78;1.90;;;;;;;10.83;100.00;97781.22;5022906;28;20550;-64
2021/10/10 03:07:38;;;;;;;2.55;1.80;;;;;;;10.85;100.00;97776.13;5024737;28;20064;-64
2021/10/10 03:10:06;;;;;;;1.70;1.60;;;;;;;10.87;100.00;97776.56;5022552;28;20061;-62
2021/10/10 03:12:33;;;;;;;1.88;1.50;;;;;;;10.87;100.00;97773.81;5024977;28;20053;-64
2021/10/10 03:14:59;;;;;;;1.60;1.50;;;;;;;10.85;100.00;97767.78;5024784;28;20080;-63
2021/10/10 03:17:26;;;;;;;1.73;1.63;;;;;;;10.89;100.00;97772.28;5024753;28;20091;-63
2021/10/10 03:19:53;;;;;;;2.22;2.03;;;;;;;10.68;100.00;97761.41;5024753;28;20046;-63
2021/10/10 03:22:19;;;;;;;2.67;2.30;;;;;;;10.67;100.00;97753.44;5023376;28;20436;-64
2021/10/10 03:24:46;;;;;;;3.25;1.80;;;;;;;10.79;100.00;97777.53;5024660;28;20134;-64
2021/10/10 03:27:13;;;;;;;1.50;1.40;;;;;;;10.70;100.00;97759.09;5024118;28;20058;-64
2021/10/10 03:29:39;;;;;;;2.10;1.70;;;;;;;10.38;100.00;97703.97;5023992;28;20068;-63
2021/10/10 03:32:06;;;;;;;3.90;2.88;;;;;;;10.73;100.00;97763.94;5022805;28;20049;-64
2021/10/10 03:34:33;;;;;;;4.75;3.05;;;;;;;10.39;100.00;97702.81;5024447;28;20493;-64
2021/10/10 03:37:00;;;;;;;6.82;3.17;;;;;;;10.68;100.00;97761.41;5024200;28;20049;-65
2021/10/10 03:39:26;;;;;;;2.75;2.13;;;;;;;10.78;100.00;97768.41;5024664;28;20413;-65
2021/10/10 03:41:53;;;;;;;4.28;2.92;;;;;;;10.79;100.00;97769.22;5024602;28;20083;-64
2021/10/10 03:44:20;;;;;;;3.05;2.05;;;;;;;10.79;100.00;97777.53;5023117;28;20052;-63
2021/10/10 03:46:46;;;;;;;3.70;2.78;;;;;;;10.78;100.00;97770.38;5022820;28;20053;-64
2021/10/10 03:49:13;;;;;;;5.13;3.60;;;;;;;10.79;100.00;97772.81;5024293;28;20061;-64
2021/10/10 03:51:40;;;;;;;5.88;3.95;;;;;;;10.72;100.00;97766.28;5022415;28;20053;-62
2021/10/10 03:56:33;;;;;;;3.30;2.72;;;;;;;10.81;100.00;97766.91;5023651;28;20056;-62
2021/10/10 03:59:00;;;;;;;8.75;5.97;;;;;;;10.76;100.00;97772.69;5024099;28;20056;-62
2021/10/10 04:01:27;;;;;;;5.72;4.40;;;;;;;10.43;100.00;97715.59;5023899;28;20054;-63
2021/10/10 04:03:54;;;;;;;6.15;3.60;;;;;;;10.68;100.00;97761.41;5022589;28;20512;-62
2021/10/10 04:06:21;;;;;;;8.73;5.53;;;;;;;10.22;100.00;97687.31;5023436;28;20056;-64
2021/10/10 04:08:49;;;;;;;6.25;4.80;;;;;;;10.78;100.00;97773.16;5022412;28;20053;-62
2021/10/10 04:11:16;;;;;;;4.43;3.67;;;;;;;10.64;100.00;97770.78;5023586;28;20432;-61
2021/10/10 04:13:42;;;;;;;8.55;5.45;;;;;;;10.72;100.00;97767.06;5023658;28;20049;-62
2021/10/10 04:16:09;;;;;;;9.40;5.80;;;;;;;10.51;100.00;97738.78;5023446;28;20068;-63
2021/10/10 04:18:36;;;;;;;7.25;5.38;;;;;;;10.09;100.00;97671.91;5023964;28;20068;-62
2021/10/10 04:21:04;;;;;;;5.72;4.05;;;;;;;10.66;100.00;97779.56;5023166;28;20119;-62
2021/10/10 04:23:32;;;;;;;19.90;8.07;;;;;;;9.51;100.00;97649.53;5023870;28;20118;-62
2021/10/10 04:25:58;;;;;;;3.80;2.80;;;;;;;9.97;100.00;97773.50;5021918;28;20064;-63
2021/10/10 04:28:25;;;;;;;4.10;3.30;;;;;;;10.20;100.00;97766.31;5023884;28;20067;-63
2021/10/10 04:30:52;;;;;;;3.08;2.65;;;;;;;9.87;100.00;97713.91;5022845;28;20064;-63
2021/10/10 04:33:19;;;;;;;2.95;2.50;;;;;;;10.24;100.00;97773.56;5022326;28;20061;-63
2021/10/10 04:35:48;;;;;;;2.80;2.50;;;;;;;10.23;100.00;97771.97;5023336;28;20059;-64
2021/10/10 04:38:16;;;;;;;3.20;2.55;;;;;;;10.32;100.00;97769.84;5024044;28;20057;-64
2021/10/10 04:40:44;;;;;;;1.95;1.73;;;;;;;10.33;100.00;97767.91;5023327;28;20050;-64
2021/10/10 04:43:10;;;;;;;2.97;2.05;;;;;;;10.41;100.00;97773.31;5021890;28;20064;-63
2021/10/10 04:45:37;;;;;;;3.15;2.10;;;;;;;10.45;100.00;97774.22;5023097;28;20049;-65
2021/10/10 04:48:04;;;;;;;2.72;2.40;;;;;;;10.43;100.00;97772.97;5023381;28;20056;-64
2021/10/10 04:50:31;;;;;;;3.25;2.30;;;;;;;10.40;100.00;97771.69;5021569;28;20446;-67
2021/10/10 04:52:58;;;;;;;3.10;2.45;;;;;;;10.20;100.00;97725.59;5003484;28;20089;-63
2021/10/10 04:55:24;;;;;;;3.53;2.78;;;;;;;10.39;100.00;97753.47;5002591;28;20060;-64
2021/10/10 04:57:52;;;;;;;3.42;2.10;;;;;;;10.63;100.00;97770.00;5003897;28;20062;-66
2021/10/10 05:00:19;;;;;;;3.70;2.38;;;;;;;8.77;100.00;97484.22;5003270;28;20532;-66
2021/10/10 05:02:45;;;;;;;3.97;2.20;;;;;;;10.58;100.00;97777.75;5003739;28;20058;-64
2021/10/10 05:05:12;;;;;;;3.00;2.42;;;;;;;9.94;100.00;97669.81;5001659;28;20057;-64
2021/10/10 05:07:39;;;;;;;4.32;3.22;;;;;;;10.70;100.00;97781.25;5001695;28;20428;-66
2021/10/10 05:10:06;;;;;;;7.72;4.88;;;;;;;10.66;100.00;97785.91;5003103;28;20447;-65
2021/10/10 05:12:33;;;;;;;5.15;3.60;;;;;;;10.72;100.00;97782.91;5001836;28;20490;-65
2021/10/10 05:15:00;;;;;;;3.90;3.50;;;;;;;10.66;100.00;97785.91;5003555;28;20059;-65
2021/10/10 05:17:26;;;;;;;9.80;7.45;;;;;;;10.66;100.00;97791.44;5003482;28;20454;-63
2021/10/10 05:19:53;;;;;;;4.28;3.30;;;;;;;10.70;100.00;97781.25;5003039;28;20512;-63
2021/10/10 05:22:20;;;;;;;4.57;3.05;;;;;;;10.20;100.00;97692.38;5001542;28;20069;-64
2021/10/10 05:24:47;;;;;;;6.30;3.70;;;;;;;10.81;100.00;97784.34;5001661;28;20049;-64
2021/10/10 05:27:13;;;;;;;7.18;3.50;;;;;;;10.34;100.00;97778.63;5003816;28;20148;-64
2021/10/10 05:29:41;;;;;;;2.45;2.25;;;;;;;10.58;100.00;97773.00;5002889;28;20065;-65
2021/10/10 05:32:08;;;;;;;3.22;2.83;;;;;;;10.65;100.00;97778.75;5002727;28;20077;-66
2021/10/10 05:34:35;;;;;;;4.35;3.42;;;;;;;10.67;100.00;97786.69;5004348;28;20058;-65
2021/10/10 05:37:01;;;;;;;5.60;3.97;;;;;;;10.82;100.00;97785.13;5006475;28;20522;-64
2021/10/10 05:39:28;;;;;;;5.30;3.03;;;;;;;10.49;100.00;97791.75;5006903;28;20097;-64
2021/10/10 05:41:55;;;;;;;2.67;1.95;;;;;;;10.02;100.00;97704.84;5005055;28;20050;-65
2021/10/10 05:44:21;;;;;;;4.30;2.70;;;;;;;10.68;100.00;97789.13;5006737;28;20061;-64
2021/10/10 05:46:48;;;;;;;2.55;2.35;;;;;;;10.68;100.00;97771.69;5006109;28;20056;-65
2021/10/10 05:49:15;;;;;;;4.72;3.55;;;;;;;10.78;100.00;97771.19;5006498;28;20049;-63
2021/10/10 05:51:46;;;;;;;4.90;3.67;;;;;;;10.88;100.00;97786.47;5024338;28;20512;-66
2021/10/10 05:54:15;;;;;;;7.38;4.57;;;;;;;10.94;100.00;97785.09;5026606;28;20128;-66
2021/10/10 05:56:42;;;;;;;9.48;5.20;;;;;;;10.52;100.00;97734.84;5026210;28;20160;-64
2021/10/10 05:59:10;;;;;;;10.73;6.50;;;;;;;10.85;100.00;97770.56;5024768;28;20061;-65
2021/10/10 06:01:39;;;;;;;15.88;9.05;;;;;;;11.07;100.00;97783.84;5024369;28;20523;-64
2021/10/10 06:04:07;;;;;;;16.88;9.80;;;;;;;10.22;100.00;97648.56;5026587;28;20061;-64
2021/10/10 06:06:34;;;;;;;16.88;10.20;;;;;;;11.11;100.00;97784.75;5026070;28;20136;-63
2021/10/10 06:09:03;;;;;;;29.80;15.07;;;;;;;11.11;100.00;97773.66;5026149;28;20049;-64
2021/10/10 06:11:30;;;;;;;33.10;18.77;;;;;;;10.92;100.00;97748.59;5025878;28;20053;-64
2021/10/10 06:13:58;;;;;;;30.27;15.77;;;;;;;11.17;100.00;97794.44;5026098;28;20049;-65
2021/10/10 06:16:26;;;;;;;29.38;15.70;;;;;;;11.21;100.00;97789.75;5025783;28;20140;-65
2021/10/10 06:18:53;;;;;;;29.48;15.27;;;;;;;11.27;100.00;97789.16;5024461;28;20049;-65
2021/10/10 06:21:20;;;;;;;23.65;14.02;;;;;;;11.38;100.00;97789.44;5025483;28;20056;-65
2021/10/10 06:23:46;;;;;;;15.38;8.73;;;;;;;11.14;100.00;97739.69;5025693;28;20488;-65
2021/10/10 06:26:13;;;;;;;14.73;9.90;;;;;;;11.53;100.00;97792.22;5024170;28;20049;-65
2021/10/10 06:28:40;;;;;;;20.02;9.55;;;;;;;11.56;100.00;97791.50;5025383;28;20485;-65
2021/10/10 06:31:07;;;;;;;32.30;12.57;;;;;;;11.54;100.00;97776.38;5024039;28;20045;-65
2021/10/10 06:33:33;;;;;;;18.23;8.93;;;;;;;11.65;100.00;97788.59;5024449;28;20061;-65
2021/10/10 06:36:00;;;;;;;19.67;8.18;;;;;;;10.34;100.00;97573.72;5025839;28;20064;-65
2021/10/10 06:38:27;;;;;;;14.02;8.23;;;;;;;11.51;100.00;97754.88;5025579;28;20068;-65
2021/10/10 06:40:53;;;;;;;18.70;10.40;;;;;;;11.78;100.00;97792.84;5023424;28;20329;-65
2021/10/10 06:43:20;;;;;;;18.65;12.25;;;;;;;11.72;100.00;97783.19;5025019;28;20488;-65
2021/10/10 06:45:47;;;;;;;25.17;15.50;;;;;;;11.43;100.00;97734.47;5024868;28;20439;-64
2021/10/10 06:48:14;;;;;;;17.27;11.57;;;;;;;11.48;100.00;97738.94;5025330;28;20049;-65
2021/10/10 06:50:40;;;;;;;10.80;6.32;;;;;;;10.90;100.00;97673.31;5025082;28;20060;-66
2021/10/10 06:53:07;;;;;;;8.73;5.55;;;;;;;11.77;100.00;97791.25;5025717;28;20045;-65
2021/10/10 06:55:34;;;;;;;6.38;4.03;;;;;;;11.69;100.00;97801.38;5023433;28;20071;-64
2021/10/10 06:58:01;;;;;;;4.38;2.85;;;;;;;11.71;100.00;97799.03;5024971;28;20053;-65
2021/10/10 07:00:28;;;;;;;3.63;2.85;;;;;;;9.85;100.00;97492.09;5023324;28;20132;-63
2021/10/10 07:02:55;;;;;;;2.72;2.50;;;;;;;11.79;100.00;97795.25;5024537;28;20049;-63
2021/10/10 07:05:22;;;;;;;2.40;2.20;;;;;;;11.78;100.00;97792.84;5023262;28;20061;-64
2021/10/10 07:07:48;;;;;;;4.28;2.58;;;;;;;11.76;100.00;97795.19;5024759;28;20057;-63
2021/10/10 07:10:15;;;;;;;3.90;2.53;;;;;;;11.40;100.00;97742.72;5022936;28;20140;-64
2021/10/10 07:12:42;;;;;;;4.90;3.00;;;;;;;10.98;100.00;97675.09;5023718;28;20496;-65
2021/10/10 07:15:11;;;;;;;4.15;2.72;;;;;;;11.61;100.00;97793.19;5024960;28;20744;-65
2021/10/10 07:17:38;;;;;;;4.15;3.22;;;;;;;11.72;100.00;97822.03;5024622;28;20049;-65
2021/10/10 07:20:25;;;;;;;2.83;2.58;;;;;;;11.40;100.00;97753.81;5024173;28;20051;-64
2021/10/10 07:23:10;;;;;;;5.00;2.75;;;;;;;11.71;100.00;97815.69;5024337;28;20049;-63
2021/10/10 07:25:37;;;;;;;4.30;3.25;;;;;;;11.79;100.00;97806.38;5022984;28;20519;-65
2021/10/10 07:28:04;;;;;;;4.95;3.60;;;;;;;11.66;100.00;97773.53;5024528;28;20053;-62
2021/10/10 07:30:31;;;;;;;5.47;2.78;;;;;;;11.80;100.00;97796.06;5022620;28;20051;-63
2021/10/10 07:32:58;;;;;;;4.45;3.20;;;;;;;11.93;100.00;97801.16;5024283;28;20431;-64
2021/10/10 07:35:25;;;;;;;14.70;6.55;;;;;;;11.96;100.00;97802.41;5022269;28;20054;-63
2021/10/10 07:37:52;;;;;;;11.30;10.30;;;;;;;11.68;100.00;97754.56;5024118;28;20049;-65
2021/10/10 07:40:18;;;;;;;6.38;4.72;;;;;;;11.89;100.00;97785.56;5024083;28;20071;-64
2021/10/10 07:42:45;;;;;;;6.80;3.92;;;;;;;10.48;100.00;97568.53;5022767;28;20056;-64
2021/10/10 07:45:13;;;;;;;4.20;2.45;;;;;;;11.82;100.00;97791.75;5022471;28;20060;-65
2021/10/10 07:50:10;;;;;;;9.80;5.03;;;;;;;11.56;100.00;97730.44;5023916;28;20168;-64
2021/10/10 07:52:38;;;;;;;14.95;8.30;;;;;;;11.51;100.00;97732.69;5023324;28;20140;-68
2021/10/10 07:55:05;;;;;;;9.80;5.15;;;;;;;11.97;100.00;97796.50;5023742;28;20670;-65
2021/10/10 07:57:32;;;;;;;9.30;4.65;;;;;;;11.60;100.00;97736.09;5021609;28;20054;-65
2021/10/10 07:59:58;;;;;;;7.43;4.88;;;;;;;12.09;100.00;97806.69;5024158;28;20107;-65
2021/10/10 08:02:27;;;;;;;9.20;5.88;;;;;;;12.09;100.00;97798.38;5022119;28;20046;-65
2021/10/10 08:04:54;;;;;;;10.75;5.38;;;;;;;12.12;100.00;97811.53;5022672;28;20148;-64
2021/10/10 08:07:20;;;;;;;15.77;6.65;;;;;;;12.14;100.00;97806.41;5022277;28;20509;-64
2021/10/10 08:09:47;;;;;;;12.07;6.70;;;;;;;12.22;100.00;97802.63;5023347;28;20072;-64
2021/10/10 08:12:14;;;;;;;11.57;6.68;;;;;;;11.90;100.00;97734.47;5023389;28;20067;-64
2021/10/10 08:14:41;;;;;;;31.70;11.25;;;;;;;12.27;100.00;97805.13;5023760;28;20475;-66
2021/10/10 08:17:07;;;;;;;36.22;18.83;;;;;;;11.96;100.00;97767.13;5023525;28;20049;-65
2021/10/10 08:19:34;;;;;;;20.23;10.25;;;;;;;11.82;100.00;97710.47;5023545;28;20056;-65
2021/10/10 08:22:01;;;;;;;15.45;9.18;;;;;;;12.48;100.00;97804.78;5022147;28;20049;-65
2021/10/10 08:24:29;;;;;;;15.73;9.10;;;;;;;12.17;100.00;97727.94;5022301;28;20540;-64
2021/10/10 08:26:56;;;;;;;11.50;5.88;;;;;;;12.16;100.00;97720.75;5023231;28;20136;-65
2021/10/10 08:29:23;;;;;;;19.33;9.13;;;;;;;12.74;100.00;97797.41;5022990;28;20065;-67
2021/10/10 08:31:50;;;;;;;12.65;7.25;;;;;;;12.70;99.22;97768.75;5021938;28;20069;-66
2021/10/10 08:34:19;;;;;;;12.38;4.95;;;;;;;12.09;98.38;97681.72;5023665;28;20054;-67
2021/10/10 08:36:46;;;;;;;9.57;4.88;;;;;;;12.76;97.94;97786.72;5022377;28;20836;-65
2021/10/10 08:39:13;;;;;;;6.45;4.28;;;;;;;12.96;98.60;97799.44;5022090;28;20480;-65
2021/10/10 08:41:46;;;;;;;14.00;6.80;;;;;;;12.51;98.79;97702.03;5023330;28;20061;-65
2021/10/10 08:44:17;;;;;;;14.23;6.60;;;;;;;12.74;95.68;97752.13;5023686;28;20520;-66
2021/10/10 08:46:45;;;;;;;18.67;7.53;;;;;;;12.91;97.42;97794.19;5023665;28;20049;-67
2021/10/10 08:49:12;;;;;;;16.90;6.75;;;;;;;12.17;99.11;97678.72;5023802;28;20045;-67
2021/10/10 08:51:39;;;;;;;11.80;7.68;;;;;;;12.51;99.71;97732.63;5023101;28;20053;-67
2021/10/10 08:54:05;;;;;;;14.23;7.22;;;;;;;12.74;99.80;97769.59;5021628;28;20059;-66
2021/10/10 08:56:33;;;;;;;14.52;7.70;;;;;;;12.52;100.00;97739.78;5021413;28;20061;-67
2021/10/10 08:59:03;;;;;;;12.70;7.13;;;;;;;12.44;96.90;97715.78;5023444;28;20575;-66
2021/10/10 09:01:36;;;;;;;15.15;7.07;;;;;;;12.92;97.70;97801.38;5023184;28;20060;-67
2021/10/10 09:04:03;;;;;;;12.95;7.55;;;;;;;13.02;96.04;97803.59;5022821;28;20069;-66
2021/10/10 09:06:33;;;;;;;13.10;6.97;;;;;;;12.73;98.38;97765.22;5022623;28;20049;-68
2021/10/10 09:09:29;;;;;;;11.68;6.68;;;;;;;12.89;100.00;97810.44;5024890;28;20054;-65
2021/10/10 09:12:01;;;;;;;19.15;9.27;;;;;;;10.86;99.60;97489.50;5024850;28;20050;-66
2021/10/10 09:14:28;;;;;;;14.60;7.78;;;;;;;12.79;100.00;97799.91;5027339;28;20411;-67
2021/10/10 09:17:12;;;;;;;13.88;7.28;;;;;;;12.70;100.00;97790.97;5025585;28;20083;-65
2021/10/10 09:19:39;;;;;;;12.32;6.43;;;;;;;12.63;100.00;97801.94;5025143;28;20081;-65
2021/10/10 09:22:06;;;;;;;17.05;7.60;;;;;;;12.72;100.00;97796.16;5026488;28;20049;-66
2021/10/10 09:24:34;;;;;;;14.20;6.45;;;;;;;12.44;100.00;97751.13;5026358;28;20046;-65
2021/10/10 09:27:14;;;;;;;11.43;5.65;;;;;;;12.63;100.00;97790.03;5026698;28;20053;-66
2021/10/10 09:29:47;;;;;;;7.93;5.25;;;;;;;12.69;100.00;97800.50;5024653;28;20065;-66
2021/10/10 09:32:20;;;;;;;8.90;4.68;;;;;;;12.68;100.00;97798.06;5024495;28;20497;-66
2021/10/10 09:34:49;;;;;;;12.02;4.93;;;;;;;12.63;100.00;97801.94;5026481;28;20049;-67
2021/10/10 09:37:33;;;;;;;8.30;4.30;;;;;;;12.61;100.00;97793.19;5026339;28;20061;-68
2021/10/10 09:42:38;;;;;;;10.75;5.13;;;;;;;12.75;100.00;97798.22;5026325;28;20123;-67
2021/10/10 09:45:23;;;;;;;5.45;3.53;;;;;;;12.64;100.00;97803.56;5026044;28;20065;-68
2021/10/10 09:47:58;;;;;;;5.90;4.15;;;;;;;12.32;100.00;97767.91;5026314;28;20057;-68
2021/10/10 09:50:29;;;;;;;9.98;4.75;;;;;;;12.61;100.00;97818.19;5024597;28;20519;-67
2021/10/10 09:53:08;;;;;;;10.77;5.28;;;;;;;12.58;100.00;97793.91;5024748;28;20065;-67
2021/10/10 09:55:59;;;;;;;12.32;7.05;;;;;;;12.55;100.00;97816.06;5025881;28;20494;-67
2021/10/10 09:58:38;;;;;;;9.23;6.22;;;;;;;12.54;100.00;97811.66;5024914;28;20058;-67
2021/10/10 10:01:22;;;;;;;15.48;6.13;;;;;;;12.59;100.00;97812.19;5025525;28;20053;-67
2021/10/10 10:04:06;;;;;;;7.82;4.50;;;;;;;12.39;100.00;97796.66;5026420;28;20084;-67
2021/10/10 10:06:39;;;;;;;10.02;4.80;;;;;;;12.44;100.00;97804.69;5024138;28;20060;-66
2021/10/10 10:09:10;;;;;;;14.43;5.13;;;;;;;11.53;100.00;97638.81;5025561;28;20057;-67
2021/10/10 10:11:44;;;;;;;10.20;4.28;;;;;;;12.64;100.00;97774.97;5026088;28;20057;-67
2021/10/10 10:14:14;;;;;;;11.25;5.22;;;;;;;12.70;100.00;97807.66;5026107;28;20119;-66
2021/10/10 10:16:46;;;;;;;8.57;3.95;;;;;;;12.65;100.00;97791.25;5026210;28;20072;-66
2021/10/10 10:19:18;;;;;;;6.28;4.28;;;;;;;12.73;100.00;97795.00;5025203;28;20056;-66
2021/10/10 10:22:07;;;;;;;7.80;4.03;;;;;;;11.20;100.00;97550.50;5024477;28;20057;-67
2021/10/10 10:24:37;;;;;;;10.43;4.00;;;;;;;12.66;100.00;97767.84;5024193;28;20067;-67
2021/10/10 10:27:04;;;;;;;9.95;4.30;;;;;;;13.00;100.00;97797.59;5024616;28;20054;-66
2021/10/10 10:29:32;;;;;;;8.07;4.25;;;;;;;12.93;100.00;97766.03;5025422;28;20064;-67
2021/10/10 10:32:00;;;;;;;10.07;3.70;;;;;;;13.04;100.00;97756.72;5025573;28;20160;-67
2021/10/10 10:34:28;;;;;;;4.93;3.80;;;;;;;13.44;95.56;97795.22;5025434;28;20061;-68
2021/10/10 10:36:56;;;;;;;8.15;4.68;;;;;;;13.46;96.23;97790.09;5024425;28;20052;-68
2021/10/10 10:39:45;;;;;;;8.82;4.15;;;;;;;13.49;96.39;97794.91;5025430;28;20239;-68
2021/10/10 10:42:23;;;;;;;13.90;4.25;;;;;;;13.39;95.45;97793.53;5024118;28;20128;-68
2021/10/10 10:44:53;;;;;;;9.50;4.53;;;;;;;13.45;95.97;97778.13;5025162;28;20080;-68
2021/10/10 10:47:40;;;;;;;9.35;5.15;;;;;;;13.79;98.26;97775.53;5025358;28;20487;-67
2021/10/10 10:50:13;;;;;;;13.15;7.00;;;;;;;13.85;93.05;97782.41;5025282;28;20443;-65
2021/10/10 10:52:42;;;;;;;15.70;6.03;;;;;;;13.81;95.83;97784.31;5024989;28;20083;-65
2021/10/10 10:55:47;;;;;;;13.50;6.25;;;;;;;13.19;96.79;97775.28;5024688;28;20059;-66
2021/10/10 10:58:15;;;;;;;14.98;6.05;;;;;;;12.77;100.00;97713.25;5027520;28;20087;-67
2021/10/10 11:00:47;;;;;;;11.88;6.65;;;;;;;13.30;100.00;97781.88;5022909;28;20496;-66
2021/10/10 11:03:18;;;;;;;18.15;7.13;;;;;;;13.56;100.00;97789.47;5024282;28;20905;-66
2021/10/10 11:06:00;;;;;;;14.07;6.32;;;;;;;13.76;98.55;97776.28;5023210;28;20060;-66
2021/10/10 11:08:27;;;;;;;16.40;6.85;;;;;;;13.82;96.97;97769.19;5024917;28;20073;-66
2021/10/10 11:11:01;;;;;;;16.80;7.30;;;;;;;13.62;97.97;97774.84;5024603;28;20056;-66
2021/10/10 11:13:35;;;;;;;16.38;6.75;;;;;;;13.10;100.00;97766.38;5022957;28;20140;-66
2021/10/10 11:16:14;;;;;;;16.50;7.13;;;;;;;13.37;100.00;97753.34;5024391;28;20053;-66
2021/10/10 11:18:47;;;;;;;15.23;6.47;;;;;;;13.19;100.00;97711.31;5024952;28;20053;-66
2021/10/10 11:21:28;;;;;;;7.60;4.28;;;;;;;12.56;97.44;97640.63;5024020;28;20591;-66
2021/10/10 11:23:58;;;;;;;8.68;4.18;;;;;;;13.88;93.95;97762.16;5024619;28;20128;-65
2021/10/10 11:26:28;;;;;;;11.13;5.00;;;;;;;13.37;94.96;97754.13;5024520;28;20037;-65
2021/10/10 11:28:59;;;;;;;13.13;5.53;;;;;;;12.39;97.23;97596.63;5024731;28;20064;-64
2021/10/10 11:31:32;;;;;;;16.20;4.72;;;;;;;13.67;95.64;97762.63;5023724;28;20053;-65
2021/10/10 11:34:02;;;;;;;10.05;5.88;;;;;;;13.81;92.33;97762.03;5024686;28;20045;-65
2021/10/10 11:36:41;;;;;;;12.07;6.05;;;;;;;13.74;91.81;97770.28;5024174;28;20530;-65
2021/10/10 11:39:10;;;;;;;12.35;6.72;;;;;;;13.09;92.63;97647.94;5024607;28;20068;-65